Time;durP1;ratioP1;P1;durP2;ratioP2;P2;SDS_P1;SDS_P2;PMS_P1;PMS_P2;Temp;Humidity;BMP_temperature;BMP_pressure;BME280_temperature;BME280_humidity;BME280_pressure;Samples;Min_cycle;Max_cycle;Signal;HPM_P1;HPM_P2
2023/08/15 00:04:21;;;;;;;7.05;4.80;;;;;;;25.04;53.89;99542.94;10370646;28;20228;-67
2023/08/15 00:09:23;;;;;;;6.68;4.75;;;;;;;23.94;56.30;99548.53;10372611;28;20232;-69
2023/08/15 00:14:25;;;;;;;5.35;4.40;;;;;;;24.81;54.98;99511.66;10370238;28;20667;-69
2023/08/15 00:19:27;;;;;;;5.13;4.63;;;;;;;24.31;54.51;99552.75;10368734;28;20613;-69
2023/08/15 00:24:29;;;;;;;7.85;4.13;;;;;;;25.06;52.85;99537.97;10368627;28;20315;-69
2023/08/15 00:29:31;;;;;;;5.78;4.20;;;;;;;25.10;53.03;99536.31;10367973;28;20302;-69
2023/08/15 00:34:32;;;;;;;4.53;4.13;;;;;;;25.09;52.57;99537.41;10369476;28;20767;-69
2023/08/15 00:39:34;;;;;;;5.72;3.95;;;;;;;25.29;52.26;99525.47;10363228;28;20730;-68
2023/08/15 00:44:40;;;;;;;6.00;4.28;;;;;;;25.26;52.45;99520.56;10366713;28;20244;-68
2023/08/15 00:49:43;;;;;;;4.53;3.60;;;;;;;25.01;52.47;99538.03;10349907;28;20316;-68
2023/08/15 00:54:49;;;;;;;6.75;4.03;;;;;;;25.05;52.11;99552.78;10344369;28;20237;-68
2023/08/15 00:59:51;;;;;;;4.53;4.00;;;;;;;24.07;53.34;99566.22;10350837;28;20296;-68
2023/08/15 01:04:53;;;;;;;5.40;4.30;;;;;;;24.94;52.90;99526.59;10351175;28;20599;-68
2023/08/15 01:09:55;;;;;;;4.60;4.10;;;;;;;25.01;52.21;99539.97;10350468;28;20279;-68
2023/08/15 01:15:09;;;;;;;7.03;4.40;;;;;;;25.01;52.64;99542.69;10349621;28;20229;-68
2023/08/15 01:20:15;;;;;;;6.57;4.40;;;;;;;25.08;51.98;99538.50;10352150;28;20829;-68
2023/08/15 01:25:17;;;;;;;6.88;4.20;;;;;;;24.61;53.14;99533.69;10352024;28;20284;-68
2023/08/15 01:30:23;;;;;;;5.28;3.95;;;;;;;25.26;52.00;99537.00;10353518;28;20332;-69
2023/08/15 01:35:33;;;;;;;6.53;4.32;;;;;;;24.51;53.21;99532.66;10354728;28;20233;-68
2023/08/15 01:40:36;;;;;;;7.10;4.93;;;;;;;25.19;51.64;99520.06;10349524;28;20737;-68
2023/08/15 01:45:38;;;;;;;6.90;4.13;;;;;;;24.91;52.21;99533.47;10349348;28;20689;-68
2023/08/15 01:50:40;;;;;;;9.90;3.83;;;;;;;25.23;51.39;99537.56;10353877;28;21888;-68
2023/08/15 01:55:41;;;;;;;5.20;3.72;;;;;;;24.27;52.62;99551.69;10344100;28;20265;-68
2023/08/15 02:00:43;;;;;;;6.32;4.30;;;;;;;22.59;56.83;99572.69;10343812;28;20312;-68
2023/08/15 02:05:45;;;;;;;8.82;4.70;;;;;;;21.77;58.65;99565.81;10349304;28;20228;-68
2023/08/15 02:10:47;;;;;;;6.72;4.35;;;;;;;21.44;59.27;99575.16;10348179;28;20240;-68
2023/08/15 02:15:50;;;;;;;6.72;4.50;;;;;;;20.81;60.49;99588.50;10351754;28;20256;-68
2023/08/15 02:20:52;;;;;;;7.47;5.20;;;;;;;19.79;63.97;99569.09;10352773;28;20237;-68
2023/08/15 02:25:54;;;;;;;7.75;6.13;;;;;;;19.43;64.71;99553.09;10346531;28;20380;-68
2023/08/15 02:30:55;;;;;;;6.75;6.00;;;;;;;20.41;63.24;99519.03;10348309;28;20648;-68
2023/08/15 02:36:04;;;;;;;7.00;5.85;;;;;;;21.31;60.16;99504.84;10343453;28;20235;-68
2023/08/15 02:41:06;;;;;;;6.00;5.28;;;;;;;22.58;56.23;99584.69;10347142;28;20332;-68
2023/08/15 02:46:07;;;;;;;7.00;5.38;;;;;;;20.40;61.13;99594.31;10350758;28;20320;-68
2023/08/15 02:51:09;;;;;;;6.43;5.68;;;;;;;22.20;57.20;99549.41;10348573;28;20685;-68
2023/08/15 02:56:11;;;;;;;6.50;5.82;;;;;;;20.71;60.75;99578.31;10346568;28;22480;-68
2023/08/15 03:01:13;;;;;;;8.25;5.88;;;;;;;21.30;60.78;99550.25;10351018;28;20265;-68
2023/08/15 03:06:15;;;;;;;7.97;5.28;;;;;;;21.34;60.28;99545.13;10351868;28;20244;-68
2023/08/15 03:11:17;;;;;;;8.70;5.28;;;;;;;23.42;55.53;99553.31;10352838;28;20328;-68
2023/08/15 03:16:19;;;;;;;6.60;5.63;;;;;;;23.57;54.93;99579.78;10350733;28;20236;-69
2023/08/15 03:21:21;;;;;;;6.53;5.18;;;;;;;23.86;53.64;99590.09;10344416;28;20611;-67
2023/08/15 03:26:22;;;;;;;6.05;5.03;;;;;;;23.40;54.63;99599.19;10347345;28;20229;-67
2023/08/15 03:31:24;;;;;;;10.48;5.85;;;;;;;22.00;57.36;99631.03;10351514;28;20807;-69
2023/08/15 03:36:26;;;;;;;5.63;4.80;;;;;;;23.40;54.35;99588.28;10348035;28;20233;-69
2023/08/15 03:41:28;;;;;;;7.80;4.63;;;;;;;23.65;54.24;99583.88;10349219;28;20244;-66
2023/08/15 03:46:30;;;;;;;7.38;5.03;;;;;;;23.74;53.11;99619.66;10340188;28;20732;-67
2023/08/15 03:51:32;;;;;;;5.72;4.95;;;;;;;22.90;55.38;99633.56;10347082;28;20230;-67
2023/08/15 03:56:38;;;;;;;6.25;5.15;;;;;;;24.08;52.67;99619.81;10341663;28;20348;-67
2023/08/15 04:01:40;;;;;;;6.20;5.00;;;;;;;21.52;56.95;99688.19;10347237;28;20244;-67
2023/08/15 04:06:42;;;;;;;6.88;5.15;;;;;;;21.60;58.50;99638.69;10349497;28;20241;-67
2023/08/15 04:11:44;;;;;;;8.15;5.28;;;;;;;22.94;55.03;99645.53;10351177;28;20250;-67
2023/08/15 04:16:45;;;;;;;6.20;5.30;;;;;;;19.74;61.59;99675.72;10374398;28;20286;-67
2023/08/15 04:21:49;;;;;;;9.38;6.07;;;;;;;22.93;56.25;99611.19;10348710;28;20724;-69
2023/08/15 04:26:51;;;;;;;9.90;5.28;;;;;;;24.10;53.27;99625.00;10378237;28;20247;-69
2023/08/15 04:31:53;;;;;;;7.63;6.57;;;;;;;19.51;63.51;99642.22;10348611;28;20241;-69
2023/08/15 04:36:55;;;;;;;9.45;7.40;;;;;;;19.54;63.79;99613.78;10346242;28;20244;-69
2023/08/15 04:41:56;;;;;;;10.60;7.03;;;;;;;21.90;58.30;99590.94;10350418;28;20267;-69
2023/08/15 04:46:58;;;;;;;7.97;6.07;;;;;;;21.22;58.83;99665.88;10346475;28;20237;-68
2023/08/15 04:52:00;;;;;;;8.68;6.35;;;;;;;22.37;56.11;99647.31;10345308;28;20728;-69
2023/08/15 04:57:02;;;;;;;6.20;5.30;;;;;;;22.25;56.88;99682.13;10347852;28;20256;-67
2023/08/15 05:02:04;;;;;;;9.40;5.85;;;;;;;21.19;58.71;99734.41;10345613;28;20244;-69
2023/08/15 05:07:06;;;;;;;7.28;6.28;;;;;;;21.43;60.13;99657.91;10349098;28;20229;-69
2023/08/15 05:12:07;;;;;;;6.53;5.80;;;;;;;20.08;62.41;99709.06;10352148;28;20342;-69
2023/08/15 05:17:09;;;;;;;8.23;5.75;;;;;;;23.68;54.17;99678.91;10342757;28;20248;-69
2023/08/15 05:22:11;;;;;;;7.07;5.75;;;;;;;23.88;54.29;99699.13;10337059;28;20233;-69
2023/08/15 05:27:14;;;;;;;5.88;5.28;;;;;;;24.67;52.03;99705.69;10338102;28;20268;-69
2023/08/15 05:32:15;;;;;;;6.50;5.72;;;;;;;23.61;54.73;99728.34;10343668;28;20249;-69
2023/08/15 05:37:17;;;;;;;5.95;4.72;;;;;;;23.79;53.63;99729.72;10335578;28;20237;-69
2023/08/15 05:42:20;;;;;;;6.55;4.70;;;;;;;23.11;55.31;99740.84;10336511;28;20229;-69
2023/08/15 05:47:22;;;;;;;5.93;4.70;;;;;;;24.31;52.78;99718.69;10339398;28;20233;-69
2023/08/15 05:52:26;;;;;;;7.70;4.93;;;;;;;24.62;52.32;99735.81;10339959;28;21034;-69
2023/08/15 05:57:27;;;;;;;6.72;5.30;;;;;;;24.00;54.29;99729.69;10338011;28;20316;-69
2023/08/15 06:02:34;;;;;;;9.32;4.80;;;;;;;24.13;53.72;99734.56;10339475;28;20242;-69
2023/08/15 06:07:36;;;;;;;7.47;4.90;;;;;;;24.10;53.19;99716.00;10340816;28;20705;-68
2023/08/15 06:12:38;;;;;;;6.72;4.65;;;;;;;23.93;53.75;99719.03;10339051;28;20229;-66
2023/08/15 06:17:41;;;;;;;6.28;4.78;;;;;;;24.69;53.18;99714.47;10339721;28;20741;-69
2023/08/15 06:22:43;;;;;;;7.43;4.85;;;;;;;24.45;52.72;99717.00;10338508;28;20250;-69
2023/08/15 06:27:44;;;;;;;5.57;4.47;;;;;;;23.83;54.28;99749.09;10335167;28;20264;-69
2023/08/15 06:32:46;;;;;;;5.70;4.10;;;;;;;25.10;51.61;99722.47;10332825;28;20240;-69
2023/08/15 06:37:48;;;;;;;5.43;4.60;;;;;;;24.63;52.75;99737.47;10340650;28;20239;-69
2023/08/15 06:42:50;;;;;;;6.55;4.43;;;;;;;23.58;55.36;99756.19;10342560;28;20990;-68
2023/08/15 06:47:51;;;;;;;7.53;4.63;;;;;;;24.43;52.46;99757.50;10340125;28;20233;-68
2023/08/15 06:52:53;;;;;;;5.18;3.92;;;;;;;24.04;53.62;99793.66;10331222;28;20711;-69
2023/08/15 06:57:55;;;;;;;6.72;4.32;;;;;;;25.21;51.32;99764.28;10339244;28;20232;-69
2023/08/15 07:02:57;;;;;;;6.53;4.70;;;;;;;24.82;52.04;99775.97;10347889;28;20779;-69
2023/08/15 07:07:59;;;;;;;5.35;4.57;;;;;;;25.23;51.50;99753.06;10339644;28;20590;-69
2023/08/15 07:13:01;;;;;;;6.28;4.30;;;;;;;24.33;53.40;99772.00;10331441;28;20325;-69
2023/08/15 07:18:03;;;;;;;7.45;4.90;;;;;;;24.98;52.59;99759.47;10331553;28;20230;-68
2023/08/15 07:23:07;;;;;;;7.95;5.00;;;;;;;24.95;53.03;99721.72;10330571;28;20233;-69
2023/08/15 07:28:09;;;;;;;5.47;4.90;;;;;;;25.13;52.30;99715.59;10333909;28;20225;-69
2023/08/15 07:33:12;;;;;;;6.38;4.93;;;;;;;25.37;52.00;99721.22;10328141;28;20257;-68
2023/08/15 07:38:14;;;;;;;7.47;5.13;;;;;;;24.92;52.51;99758.69;10329540;28;20230;-67
2023/08/15 07:43:16;;;;;;;6.30;4.90;;;;;;;25.63;51.55;99737.44;10326076;28;20237;-69
2023/08/15 07:48:18;;;;;;;7.68;4.95;;;;;;;25.23;51.83;99758.53;10343884;28;20761;-68
2023/08/15 07:53:21;;;;;;;7.90;4.63;;;;;;;25.54;52.40;99722.69;10334555;28;20288;-68
2023/08/15 07:58:23;;;;;;;6.35;4.47;;;;;;;26.23;50.79;99711.66;10338284;28;20316;-69
2023/08/15 08:03:25;;;;;;;7.50;4.25;;;;;;;24.77;52.22;99747.84;10342677;28;20245;-69
2023/08/15 08:08:27;;;;;;;7.72;4.05;;;;;;;24.60;52.62;99748.97;10330503;28;20327;-68
2023/08/15 08:13:28;;;;;;;4.85;4.28;;;;;;;25.94;50.53;99729.75;10341980;28;20222;-69
2023/08/15 08:18:30;;;;;;;5.78;4.70;;;;;;;25.45;52.40;99737.00;10333832;28;20268;-69
2023/08/15 08:23:32;;;;;;;7.78;4.75;;;;;;;26.16;51.28;99718.28;10336430;28;20245;-69
2023/08/15 08:28:34;;;;;;;9.52;5.40;;;;;;;25.39;52.64;99723.63;10340467;28;20234;-69
2023/08/15 08:33:36;;;;;;;8.35;5.10;;;;;;;25.28;54.49;99739.34;10341472;28;20330;-69
2023/08/15 08:38:37;;;;;;;9.20;5.28;;;;;;;26.74;50.79;99717.38;10343661;28;20320;-69
2023/08/15 08:43:40;;;;;;;6.93;4.88;;;;;;;27.97;48.55;99722.03;10338811;28;20368;-69
2023/08/15 08:48:42;;;;;;;8.68;5.25;;;;;;;27.59;48.93;99717.47;10337727;28;20229;-69
2023/08/15 08:53:44;;;;;;;10.23;5.93;;;;;;;27.77;48.94;99731.50;10335547;28;20248;-69
2023/08/15 08:58:49;;;;;;;7.07;4.88;;;;;;;27.38;49.49;99749.13;10337560;28;20290;-69
2023/08/15 09:03:51;;;;;;;6.55;5.15;;;;;;;27.58;49.17;99767.22;10330099;28;20265;-69
2023/08/15 09:08:53;;;;;;;6.38;5.00;;;;;;;28.07;48.56;99756.78;10336562;28;20928;-67
2023/08/15 09:13:55;;;;;;;6.85;5.20;;;;;;;26.85;49.69;99785.84;10336420;28;20736;-69
2023/08/15 09:19:07;;;;;;;7.13;5.35;;;;;;;26.83;50.61;99772.41;10335671;28;20238;-69
2023/08/15 09:24:09;;;;;;;7.60;5.90;;;;;;;27.33;50.03;99760.19;10336023;28;20234;-69
2023/08/15 09:29:12;;;;;;;8.73;5.95;;;;;;;27.57;49.11;99765.59;10331804;28;20308;-69
2023/08/15 09:34:14;;;;;;;7.25;5.82;;;;;;;25.88;51.80;99776.69;10334702;28;20222;-69
2023/08/15 09:39:15;;;;;;;8.15;5.43;;;;;;;25.85;51.12;99783.56;10343965;28;20316;-69
2023/08/15 09:44:30;;;;;;;5.88;4.85;;;;;;;25.36;52.23;99788.03;10338641;28;22410;-68
2023/08/15 09:49:32;;;;;;;6.82;5.38;;;;;;;26.02;51.32;99791.38;10335577;28;20724;-69
2023/08/15 09:54:35;;;;;;;6.70;5.22;;;;;;;27.45;48.87;99757.84;10337576;28;20623;-69
2023/08/15 09:59:37;;;;;;;8.15;5.68;;;;;;;27.02;49.41;99804.56;10334524;28;20242;-69
2023/08/15 10:04:41;;;;;;;6.95;5.30;;;;;;;26.73;49.51;99810.97;10355809;28;23132;-68
2023/08/15 10:09:43;;;;;;;6.18;4.93;;;;;;;26.96;49.33;99820.28;10330342;28;20264;-68
2023/08/15 10:14:46;;;;;;;7.55;5.20;;;;;;;27.06;48.84;99831.13;10331358;28;20221;-68
2023/08/15 10:19:48;;;;;;;8.00;5.00;;;;;;;26.76;49.79;99829.59;10337611;28;20221;-67
2023/08/15 10:24:50;;;;;;;8.65;5.38;;;;;;;26.84;49.00;99834.44;10333772;28;20711;-68
2023/08/15 10:29:58;;;;;;;7.80;5.05;;;;;;;27.08;48.65;99837.16;10332504;28;20217;-68
2023/08/15 10:35:02;;;;;;;8.18;5.68;;;;;;;27.52;47.67;99840.69;10336692;28;20254;-68
2023/08/15 10:40:10;;;;;;;9.35;5.63;;;;;;;27.85;47.23;99825.09;10331472;28;20233;-69
2023/08/15 10:45:14;;;;;;;9.50;5.32;;;;;;;28.05;47.52;99812.09;10339275;28;20253;-68
2023/08/15 10:50:16;;;;;;;9.15;5.70;;;;;;;27.59;47.82;99827.38;10333752;28;20681;-68
2023/08/15 10:55:18;;;;;;;8.23;5.90;;;;;;;25.99;50.68;99819.34;10336085;28;20264;-68
2023/08/15 11:06:18;;;;;;;5.90;4.78;;;;;;;24.03;53.70;99770.13;10411815;28;20825;-68
2023/08/15 11:11:20;;;;;;;6.40;4.22;;;;;;;24.49;51.92;99763.75;10397601;28;20728;-68
2023/08/15 11:16:23;;;;;;;5.45;4.20;;;;;;;23.77;53.42;99767.44;10418650;28;20246;-68
2023/08/15 11:21:28;;;;;;;6.10;3.83;;;;;;;24.70;51.89;99791.91;10424819;28;20731;-67
2023/08/15 11:26:30;;;;;;;3.58;2.65;;;;;;;23.48;52.44;99801.78;10423757;28;20290;-67
2023/08/15 11:31:32;;;;;;;3.35;2.90;;;;;;;24.07;51.44;99775.84;10424388;28;20664;-67
2023/08/15 11:36:35;;;;;;;4.22;2.78;;;;;;;23.37;51.96;99822.78;10424793;28;20239;-67
2023/08/15 11:41:38;;;;;;;2.70;2.50;;;;;;;25.18;50.51;99780.44;10425474;28;20243;-68
2023/08/15 11:46:42;;;;;;;2.95;2.63;;;;;;;24.93;49.79;99831.47;10422386;28;20239;-68
2023/08/15 11:51:46;;;;;;;6.93;2.60;;;;;;;24.86;49.71;99829.03;10421091;28;20227;-67
2023/08/15 11:56:49;;;;;;;2.38;2.17;;;;;;;24.78;49.04;99802.28;10421652;28;20224;-68
2023/08/15 12:01:51;;;;;;;3.20;2.25;;;;;;;24.54;49.07;99829.38;10423919;28;20236;-68
2023/08/15 12:07:19;;;;;;;3.20;1.92;;;;;;;23.96;48.86;99836.00;10423378;28;20910;-67
2023/08/15 12:12:24;;;;;;;1.92;1.70;;;;;;;24.79;47.99;99814.84;10424291;28;20720;-68
2023/08/15 12:17:27;;;;;;;2.25;1.95;;;;;;;24.65;48.13;99831.00;10395808;28;20309;-68
2023/08/15 12:22:29;;;;;;;3.25;2.05;;;;;;;24.81;47.56;99820.03;10389249;28;20225;-68
2023/08/15 12:27:31;;;;;;;2.85;1.73;;;;;;;25.32;46.31;99825.31;10394219;28;20766;-69
2023/08/15 12:32:33;;;;;;;1.73;1.60;;;;;;;24.14;47.98;99828.31;10391970;28;20278;-69
2023/08/15 12:37:35;;;;;;;2.05;1.40;;;;;;;25.02;47.54;99835.28;10390021;28;20307;-68
2023/08/15 12:42:37;;;;;;;2.45;1.80;;;;;;;24.28;49.26;99821.25;10394168;28;20248;-68
2023/08/15 12:47:38;;;;;;;2.90;2.10;;;;;;;24.08;48.56;99849.38;10364810;28;20233;-68
2023/08/15 12:52:40;;;;;;;3.42;1.90;;;;;;;25.03;49.00;99795.03;10375827;28;20232;-68
2023/08/15 12:57:42;;;;;;;2.38;1.83;;;;;;;24.71;49.17;99812.69;10393500;28;20260;-69
2023/08/15 13:02:44;;;;;;;4.55;2.00;;;;;;;24.70;49.36;99792.72;10391831;28;20237;-67
2023/08/15 13:07:46;;;;;;;1.70;1.60;;;;;;;24.86;48.69;99812.63;10364732;28;20229;-67
2023/08/15 13:12:47;;;;;;;2.35;1.90;;;;;;;25.39;47.98;99800.31;10349001;28;20312;-69
2023/08/15 13:17:49;;;;;;;2.50;1.88;;;;;;;25.32;48.17;99797.09;10349383;28;20255;-68
2023/08/15 13:22:51;;;;;;;3.22;1.90;;;;;;;24.41;49.96;99814.38;10347278;28;20252;-68
2023/08/15 13:27:53;;;;;;;1.83;1.67;;;;;;;24.66;48.73;99813.50;10375800;28;20256;-68
2023/08/15 13:32:54;;;;;;;1.58;1.38;;;;;;;24.56;47.63;99829.91;10389753;28;20229;-68
2023/08/15 13:37:56;;;;;;;3.28;1.75;;;;;;;25.19;48.44;99790.31;10387958;28;20233;-68
2023/08/15 13:42:59;;;;;;;2.25;1.55;;;;;;;25.07;48.34;99785.97;10388495;28;20232;-68
2023/08/15 13:48:00;;;;;;;1.70;1.60;;;;;;;25.13;48.00;99808.66;10384796;28;20381;-69
2023/08/15 13:53:02;;;;;;;2.45;1.65;;;;;;;25.40;46.29;99786.34;10390847;28;20720;-72
2023/08/15 13:58:04;;;;;;;2.08;1.40;;;;;;;24.48;47.16;99819.56;10395513;28;20617;-68
2023/08/15 14:03:06;;;;;;;2.15;1.40;;;;;;;24.55;46.62;99826.38;10391830;28;20266;-68
2023/08/15 14:08:08;;;;;;;1.65;1.55;;;;;;;24.55;46.86;99836.50;10390853;28;20236;-69
2023/08/15 14:13:09;;;;;;;1.80;1.70;;;;;;;24.91;46.73;99811.78;10391258;28;20232;-68
2023/08/15 14:18:11;;;;;;;1.83;1.50;;;;;;;24.97;46.90;99805.19;10388409;28;20315;-68
2023/08/15 14:23:13;;;;;;;1.40;1.30;;;;;;;24.75;46.98;99808.31;10385296;28;20224;-68
2023/08/15 14:28:16;;;;;;;1.45;1.35;;;;;;;24.67;46.86;99803.38;10387378;28;20227;-68
2023/08/15 14:33:19;;;;;;;1.30;1.20;;;;;;;24.14;47.79;99773.66;10387688;28;20229;-69
2023/08/15 14:38:21;;;;;;;1.20;1.10;;;;;;;24.15;47.35;99819.06;10387318;28;20664;-68
2023/08/15 14:43:22;;;;;;;1.55;1.40;;;;;;;25.01;46.82;99787.09;10388471;28;20232;-68
2023/08/15 14:48:24;;;;;;;1.30;1.20;;;;;;;24.80;48.16;99760.94;10386508;28;20232;-68
2023/08/15 14:53:26;;;;;;;1.48;1.35;;;;;;;25.06;47.79;99751.47;10388556;28;20661;-68
2023/08/15 14:58:28;;;;;;;1.30;1.17;;;;;;;23.91;49.29;99767.69;10390754;28;20229;-70
2023/08/15 15:03:29;;;;;;;1.40;1.30;;;;;;;24.83;46.44;99771.31;10387909;28;20262;-68
2023/08/15 15:08:31;;;;;;;1.48;1.38;;;;;;;24.24;47.97;99792.00;10387518;28;20698;-69
2023/08/15 15:13:33;;;;;;;1.30;1.20;;;;;;;25.60;46.17;99777.16;10387214;28;20735;-68
2023/08/15 15:18:35;;;;;;;1.42;1.33;;;;;;;24.61;47.87;99799.81;10389322;28;20653;-69
2023/08/15 15:23:37;;;;;;;1.10;1.10;;;;;;;24.22;49.55;99764.91;10385982;28;20327;-68
2023/08/15 15:28:38;;;;;;;1.67;1.38;;;;;;;25.05;47.69;99784.59;10383444;28;20324;-68
2023/08/15 15:33:41;;;;;;;2.42;1.40;;;;;;;24.60;47.72;99791.91;10386589;28;20893;-70
2023/08/15 15:38:42;;;;;;;2.35;1.30;;;;;;;25.21;47.63;99793.59;10387359;28;20584;-76
2023/08/15 15:43:44;;;;;;;1.83;1.20;;;;;;;24.90;48.06;99799.22;10385011;28;20240;-73
2023/08/15 15:48:49;;;;;;;3.50;1.60;;;;;;;25.17;47.32;99776.06;10387275;28;20259;-72
2023/08/15 15:53:51;;;;;;;1.27;1.17;;;;;;;24.98;47.92;99790.38;10394890;28;20241;-72
2023/08/15 15:58:53;;;;;;;1.48;1.30;;;;;;;26.47;45.16;99780.22;10394954;28;20744;-74
2023/08/15 16:03:55;;;;;;;1.25;1.15;;;;;;;25.59;45.32;99789.25;10395270;28;20240;-73
2023/08/15 16:08:56;;;;;;;1.38;1.17;;;;;;;25.66;45.90;99805.34;10394970;28;20232;-72
2023/08/15 16:13:58;;;;;;;1.30;1.20;;;;;;;26.24;45.10;99768.16;10393220;28;20828;-73
2023/08/15 16:19:00;;;;;;;1.30;1.20;;;;;;;24.97;46.38;99798.88;10395464;28;20248;-73
2023/08/15 16:24:02;;;;;;;1.25;1.15;;;;;;;26.22;44.12;99809.56;10393686;28;20343;-73
2023/08/15 16:29:03;;;;;;;1.40;1.30;;;;;;;25.78;44.22;99807.75;10395653;28;20315;-73
2023/08/15 16:34:05;;;;;;;3.53;2.97;;;;;;;26.12;43.94;99829.66;10394189;28;20232;-73
2023/08/15 16:39:07;;;;;;;3.33;2.30;;;;;;;27.56;42.71;99764.78;10387363;28;20419;-72
2023/08/15 16:44:09;;;;;;;1.98;1.88;;;;;;;28.41;41.30;99768.25;10389653;28;20327;-70
2023/08/15 16:49:11;;;;;;;2.65;1.00;;;;;;;26.14;43.76;99818.41;10390490;28;20707;-72
2023/08/15 16:54:13;;;;;;;1.60;1.40;;;;;;;27.18;43.22;99789.50;10388980;28;20321;-73
2023/08/15 16:59:14;;;;;;;1.00;1.00;;;;;;;28.40;40.89;99788.63;10393702;28;20235;-72
2023/08/15 17:04:16;;;;;;;1.45;1.17;;;;;;;27.63;41.54;99791.88;10391090;28;20252;-72
2023/08/15 17:09:18;;;;;;;1.23;1.10;;;;;;;26.83;42.42;99818.25;10392423;28;20220;-72
2023/08/15 17:14:20;;;;;;;1.25;0.90;;;;;;;25.92;43.83;99818.88;10392646;28;20331;-72
2023/08/15 17:19:22;;;;;;;1.48;1.15;;;;;;;26.39;43.20;99806.38;10393132;28;20236;-73
2023/08/15 17:24:23;;;;;;;1.35;1.20;;;;;;;28.02;42.24;99802.53;10386449;28;20318;-73
2023/08/15 17:29:25;;;;;;;1.05;1.05;;;;;;;26.62;43.65;99820.38;10388345;28;20235;-72
2023/08/15 17:34:27;;;;;;;2.08;1.13;;;;;;;27.31;42.53;99774.22;10388962;28;20236;-72
2023/08/15 17:39:29;;;;;;;1.38;1.27;;;;;;;26.80;43.23;99781.22;10386151;28;20286;-72
2023/08/15 17:44:31;;;;;;;1.30;1.20;;;;;;;27.65;41.46;99798.72;10386732;28;20228;-72
2023/08/15 17:49:33;;;;;;;1.63;1.40;;;;;;;25.91;44.02;99833.66;10388517;28;20232;-72
2023/08/15 17:54:34;;;;;;;1.58;1.10;;;;;;;26.29;43.50;99828.44;10390286;28;20770;-72
2023/08/15 17:59:36;;;;;;;1.38;1.27;;;;;;;27.91;41.52;99817.56;10388985;28;20232;-72
2023/08/15 18:04:38;;;;;;;1.40;1.30;;;;;;;27.96;41.79;99835.91;10387986;28;20345;-72
2023/08/15 18:09:40;;;;;;;1.30;1.20;;;;;;;27.81;42.05;99870.78;10387507;28;20245;-72
2023/08/15 18:14:42;;;;;;;1.20;1.10;;;;;;;25.88;44.83;99865.22;10383330;28;20232;-71
2023/08/15 18:19:48;;;;;;;2.33;1.48;;;;;;;28.27;42.51;99825.19;10390500;28;20235;-72
2023/08/15 18:24:50;;;;;;;1.88;1.27;;;;;;;28.07;42.65;99853.03;10389198;28;20228;-72
2023/08/15 18:29:52;;;;;;;1.80;1.20;;;;;;;27.26;44.21;99879.53;10391689;28;20240;-72
2023/08/15 18:34:53;;;;;;;1.98;1.20;;;;;;;27.84;43.26;99861.13;10387827;28;20221;-73
2023/08/15 18:39:55;;;;;;;1.33;1.23;;;;;;;27.33;44.01;99881.91;10387495;28;20213;-72
2023/08/15 18:44:57;;;;;;;1.45;1.10;;;;;;;25.60;46.35;99881.25;10394466;28;20316;-72
2023/08/15 18:49:58;;;;;;;6.25;1.48;;;;;;;24.98;48.40;99864.28;10388027;28;20212;-67
2023/08/15 18:55:00;;;;;;;1.15;1.13;;;;;;;26.02;46.74;99865.38;10390711;28;20268;-72
2023/08/15 19:00:03;;;;;;;2.78;1.40;;;;;;;25.96;46.42;99907.63;10393154;28;20315;-67
2023/08/15 19:05:05;;;;;;;2.33;2.00;;;;;;;25.44;47.67;99896.16;10382577;28;20237;-66
2023/08/15 19:10:08;;;;;;;2.28;1.88;;;;;;;25.92;47.08;99874.50;10391410;28;20233;-67
2023/08/15 19:15:18;;;;;;;2.10;1.45;;;;;;;25.60;47.12;99925.09;10387197;28;20232;-66
2023/08/15 19:20:21;;;;;;;2.45;2.03;;;;;;;24.76;48.93;99913.88;10388643;28;20797;-67
2023/08/15 19:25:24;;;;;;;2.55;1.60;;;;;;;24.28;50.06;99918.84;10386039;28;20235;-67
2023/08/15 19:30:26;;;;;;;2.20;1.52;;;;;;;23.72;51.27;99925.88;10394739;28;20240;-66
2023/08/15 19:35:28;;;;;;;1.77;1.48;;;;;;;25.20;49.01;99887.75;10392856;28;20313;-66
2023/08/15 19:40:30;;;;;;;3.67;1.90;;;;;;;23.75;51.42;99913.56;10393900;28;20693;-67
2023/08/15 19:45:32;;;;;;;1.95;1.50;;;;;;;23.87;50.70;99951.56;10395925;28;20274;-66
2023/08/15 19:50:34;;;;;;;1.50;1.40;;;;;;;25.14;47.54;99952.66;10395064;28;20238;-66
2023/08/15 19:55:36;;;;;;;4.60;1.80;;;;;;;24.05;50.00;99958.44;10392982;28;20233;-66
2023/08/15 20:00:40;;;;;;;6.80;1.75;;;;;;;24.22;50.06;99930.88;10393836;28;20229;-67
2023/08/15 20:05:42;;;;;;;1.63;1.50;;;;;;;24.40;49.82;99943.19;10393945;28;20239;-67
2023/08/15 20:10:52;;;;;;;2.00;1.80;;;;;;;23.98;50.98;99913.03;10394981;28;20236;-67
2023/08/15 20:15:54;;;;;;;5.80;1.73;;;;;;;22.74;53.00;99915.53;10396765;28;20236;-67
2023/08/15 20:20:58;;;;;;;2.60;1.67;;;;;;;23.03;52.57;99926.91;10393286;28;21006;-67
2023/08/15 20:26:00;;;;;;;2.00;1.83;;;;;;;22.83;52.52;99939.31;10396701;28;20240;-67
2023/08/15 20:31:02;;;;;;;2.00;1.80;;;;;;;22.55;53.13;99954.13;10395155;28;20232;-66
2023/08/15 20:36:04;;;;;;;1.98;1.30;;;;;;;22.64;53.58;99941.66;10395283;28;20259;-66
2023/08/15 20:41:06;;;;;;;2.20;1.70;;;;;;;22.83;52.91;99938.50;10396306;28;20235;-66
2023/08/15 20:46:07;;;;;;;2.70;1.80;;;;;;;23.76;50.91;99954.28;10391930;28;20729;-66
2023/08/15 20:51:09;;;;;;;1.70;1.60;;;;;;;24.54;49.67;99941.53;10392878;28;20229;-65
2023/08/15 20:56:11;;;;;;;1.98;1.80;;;;;;;23.02;51.76;99997.00;10391157;28;20233;-65
2023/08/15 21:01:13;;;;;;;1.90;1.70;;;;;;;22.99;52.29;99986.59;10393198;28;20233;-65
2023/08/15 21:06:15;;;;;;;3.20;2.15;;;;;;;22.74;53.00;99964.63;10395328;28;20228;-66
2023/08/15 21:11:17;;;;;;;3.65;1.73;;;;;;;24.56;49.91;99961.22;10394184;28;20999;-67
2023/08/15 21:16:19;;;;;;;1.98;1.88;;;;;;;24.27;49.83;99986.38;10393757;28;20913;-67
2023/08/15 21:21:21;;;;;;;2.85;1.80;;;;;;;24.11;50.47;99990.16;10391640;28;20652;-67
2023/08/15 21:26:23;;;;;;;2.22;1.80;;;;;;;23.10;52.08;100014.84;10393135;28;20407;-67
2023/08/15 21:31:28;;;;;;;2.28;2.08;;;;;;;23.52;51.77;99974.94;10391835;28;20330;-67
2023/08/15 21:36:30;;;;;;;2.25;2.03;;;;;;;22.70;53.48;99972.50;10390902;28;20261;-67
2023/08/15 21:41:31;;;;;;;4.72;2.42;;;;;;;23.56;51.31;99985.03;10393304;28;20704;-67
2023/08/15 21:46:33;;;;;;;2.33;1.83;;;;;;;23.13;51.31;100018.94;10389890;28;20326;-67
2023/08/15 21:51:35;;;;;;;2.30;2.08;;;;;;;25.43;47.93;99972.03;10390160;28;20235;-67
2023/08/15 21:56:37;;;;;;;2.80;2.08;;;;;;;25.22;48.37;99987.72;10390687;28;20243;-67
2023/08/15 22:01:38;;;;;;;4.75;2.10;;;;;;;23.83;51.12;99995.00;10384604;28;20335;-67
2023/08/15 22:06:40;;;;;;;2.72;2.20;;;;;;;25.16;48.60;99994.28;10386049;28;20265;-67
2023/08/15 22:11:42;;;;;;;2.28;2.08;;;;;;;25.12;48.56;99995.94;10389550;28;20278;-67
2023/08/15 22:16:44;;;;;;;3.28;2.40;;;;;;;24.58;49.44;100013.75;10388515;28;20335;-67
2023/08/15 22:21:46;;;;;;;3.15;2.25;;;;;;;24.94;48.64;100002.00;10390185;28;20259;-67
2023/08/15 22:26:48;;;;;;;6.38;2.08;;;;;;;24.97;49.31;99999.53;10385467;28;20788;-67
2023/08/15 22:31:50;;;;;;;2.58;2.20;;;;;;;25.18;48.50;99994.00;10387386;28;20657;-67
2023/08/15 22:36:53;;;;;;;3.40;2.20;;;;;;;24.87;49.54;99992.13;10389265;28;20638;-67
2023/08/15 22:41:55;;;;;;;2.30;2.10;;;;;;;25.47;47.96;99999.66;10388696;28;20229;-67
2023/08/15 22:46:56;;;;;;;2.65;2.20;;;;;;;24.73;49.83;99991.88;10388819;28;20290;-67
2023/08/15 22:51:58;;;;;;;3.05;2.42;;;;;;;24.21;50.10;100038.56;10387442;28;20235;-67
2023/08/15 22:57:00;;;;;;;2.55;2.35;;;;;;;23.47;52.44;99983.09;10391391;28;20243;-67
2023/08/15 23:02:02;;;;;;;3.15;2.30;;;;;;;24.66;50.01;99968.59;10388656;28;20236;-67
2023/08/15 23:07:04;;;;;;;3.38;2.60;;;;;;;25.21;48.86;99964.16;10387906;28;20627;-67
2023/08/15 23:12:06;;;;;;;3.00;2.63;;;;;;;25.04;49.76;99969.94;10391651;28;20951;-67
2023/08/15 23:17:08;;;;;;;4.00;2.45;;;;;;;25.12;49.48;99982.25;10388063;28;20247;-67
2023/08/15 23:22:09;;;;;;;3.45;2.28;;;;;;;25.17;49.26;99975.91;10389735;28;20259;-67
2023/08/15 23:27:11;;;;;;;2.67;2.47;;;;;;;24.82;49.78;99953.84;10386676;28;20240;-67
2023/08/15 23:32:13;;;;;;;3.35;2.42;;;;;;;24.76;49.55;99954.94;10389586;28;20228;-67